aviador You're here:

KTBN Decoded Metar

FORT LEONARDWOOD in MO, USA
Report Time2018-06-21 21:15:00
UTC Time2018-06-21 21:45:24
Flight Rules vfr VFR
Wind270° at 09 Gusting to 17 kt
W.Decomp.*RWY 32: 5.4 kt HW 7.2 kt LCW
W.Rank270° ranks 21
Current wind is above 270° avg. (5.8)
Visibility9999 m
Phenomena:N/A
Clouds:Few 050 Hf
Few 180 Hf
Expected CloudBase > 3,200 ft AGL from Temp-Dew spread
CeilingNone
Temp23°C (ISA +10)
Dew Point15°C (61% RH)
AAT21.4°C
QNH1008 hPa
Density Alt2,753 ft
Elevation1,158 ft
Report Wrong Elevation
Raw Report
SPECI KTBN 212115Z AUTO 27009G17KT 10SM FEW050 FEW180 23/15 A2977 RMK
AO2 DZE2058DZB05E15 SLPNO=

Extra information for KTBN:More info

Metar Taf Metar & Taf Last 4 Metars F.Rules Stats Wind Profile Meteogram Temp Stats Airport Information Weather charts Add Link Nearby VenuesMetar ALERT Operation Metar Decoded Social comments

AIRNAV info for KTBN